Time;durP1;ratioP1;P1;durP2;ratioP2;P2;SDS_P1;SDS_P2;PMS_P1;PMS_P2;Temp;Humidity;BMP_temperature;BMP_pressure;BME280_temperature;BME280_humidity;BME280_pressure;Samples;Min_cycle;Max_cycle;Signal;HPM_P1;HPM_P2
2021/12/06 00:01:48;;;;;;;3.15;2.85;;;;;;;4.04;84.47;99751.66;5049332;28;20726;-78
2021/12/06 00:04:20;;;;;;;2.92;2.60;;;;;;;4.04;84.21;99738.25;5031813;28;20406;-78
2021/12/06 00:06:50;;;;;;;2.60;2.47;;;;;;;4.03;83.86;99739.28;5032811;28;20509;-78
2021/12/06 00:09:19;;;;;;;3.40;2.93;;;;;;;4.06;84.73;99741.53;5036210;28;20418;-78
2021/12/06 00:11:45;;;;;;;3.03;2.70;;;;;;;4.06;84.22;99746.06;5033063;28;20403;-78
2021/12/06 00:14:10;;;;;;;3.10;2.87;;;;;;;4.04;84.38;99753.53;5035094;28;20417;-78
2021/12/06 00:16:36;;;;;;;2.93;2.73;;;;;;;4.02;84.56;99752.91;5035848;28;20402;-78
2021/12/06 00:19:04;;;;;;;3.80;2.78;;;;;;;3.99;84.31;99747.97;5031477;28;20407;-78
2021/12/06 00:21:30;;;;;;;3.35;3.15;;;;;;;3.92;84.57;99745.34;5038464;28;20430;-79
2021/12/06 00:23:55;;;;;;;3.20;3.00;;;;;;;3.85;84.52;99744.63;5038662;28;20415;-78
2021/12/06 00:26:21;;;;;;;2.70;2.60;;;;;;;3.82;84.63;99753.06;5031488;28;20454;-78
2021/12/06 00:28:46;;;;;;;2.90;2.63;;;;;;;3.75;84.73;99748.81;5034670;28;20393;-78
2021/12/06 00:31:14;;;;;;;3.17;2.97;;;;;;;3.68;84.53;99759.59;5034427;28;20407;-78
2021/12/06 00:33:41;;;;;;;3.90;3.42;;;;;;;3.62;84.61;99755.09;5039236;28;20449;-78
2021/12/06 00:36:15;;;;;;;3.72;3.50;;;;;;;3.57;85.12;99753.06;5030726;28;20778;-78
2021/12/06 00:38:41;;;;;;;3.80;3.50;;;;;;;3.52;84.79;99755.53;5039326;28;20401;-78
2021/12/06 00:41:06;;;;;;;5.57;3.67;;;;;;;3.50;85.13;99764.84;5045311;28;20411;-78
2021/12/06 00:43:32;;;;;;;5.23;4.73;;;;;;;3.51;85.15;99766.50;5039109;28;20403;-78
2021/12/06 00:45:57;;;;;;;4.05;3.75;;;;;;;3.43;85.12;99767.56;5030969;28;20398;-78
2021/12/06 00:48:22;;;;;;;5.80;3.67;;;;;;;3.41;85.84;99771.50;5031366;28;20516;-78
2021/12/06 00:50:48;;;;;;;4.40;3.97;;;;;;;3.40;85.69;99781.38;5040299;28;20833;-78
2021/12/06 00:53:13;;;;;;;7.10;5.13;;;;;;;3.32;85.89;99780.81;5038463;28;20786;-79
2021/12/06 00:55:39;;;;;;;5.57;4.90;;;;;;;3.18;86.19;99784.59;5043092;28;20394;-78
2021/12/06 00:58:05;;;;;;;5.87;5.23;;;;;;;3.13;86.40;99785.22;5039057;28;20434;-79
2021/12/06 01:00:38;;;;;;;8.65;6.43;;;;;;;3.19;85.76;99786.25;5031707;28;20493;-78
2021/12/06 01:03:14;;;;;;;7.47;5.57;;;;;;;3.20;85.69;99791.38;5036562;28;20395;-78
2021/12/06 01:05:41;;;;;;;7.28;5.63;;;;;;;3.19;85.38;99789.75;5035834;28;20888;-79
2021/12/06 01:08:06;;;;;;;8.23;5.88;;;;;;;3.15;85.36;99783.19;5040818;28;20425;-78
2021/12/06 01:10:33;;;;;;;7.77;5.73;;;;;;;3.09;84.99;99784.03;5041956;28;20397;-78
2021/12/06 01:12:59;;;;;;;7.25;5.60;;;;;;;3.05;85.30;99789.00;5040546;28;20391;-78
2021/12/06 01:15:26;;;;;;;6.20;5.60;;;;;;;3.04;85.19;99795.38;5048432;28;20411;-78
2021/12/06 01:17:53;;;;;;;5.95;5.20;;;;;;;2.99;85.30;99797.88;5036464;28;20431;-78
2021/12/06 01:20:23;;;;;;;6.00;4.97;;;;;;;2.97;85.03;99801.78;5049162;28;20407;-78
2021/12/06 01:23:08;;;;;;;6.85;5.60;;;;;;;2.95;85.40;99801.16;5044774;28;20425;-78
2021/12/06 01:25:45;;;;;;;8.73;6.80;;;;;;;2.92;85.01;99805.09;5051721;28;20411;-78
2021/12/06 01:31:03;;;;;;;6.65;5.82;;;;;;;2.89;85.33;99829.59;5040322;28;20407;-78
2021/12/06 01:41:30;;;;;;;6.22;5.63;;;;;;;2.98;85.59;99849.75;5034508;28;20975;-78
2021/12/06 01:44:07;;;;;;;5.90;5.30;;;;;;;3.01;85.68;99851.19;5037275;28;20410;-78
2021/12/06 01:46:35;;;;;;;9.10;6.07;;;;;;;3.02;85.16;99855.50;5033946;28;20489;-78
2021/12/06 01:49:00;;;;;;;5.60;5.00;;;;;;;3.03;85.31;99855.28;5038229;28;20413;-78
2021/12/06 01:51:26;;;;;;;7.57;5.87;;;;;;;3.03;84.95;99863.31;5035957;28;20492;-78
2021/12/06 01:53:52;;;;;;;8.38;5.47;;;;;;;3.02;85.13;99864.38;5033862;28;20415;-79
2021/12/06 01:56:17;;;;;;;5.85;5.25;;;;;;;3.02;84.98;99867.03;5041130;28;20404;-78
2021/12/06 01:58:43;;;;;;;5.60;5.20;;;;;;;3.01;84.67;99872.59;5033448;28;20418;-78
2021/12/06 02:01:08;;;;;;;6.13;5.03;;;;;;;3.00;84.03;99873.59;5050995;28;20428;-79
2021/12/06 02:03:34;;;;;;;5.03;4.57;;;;;;;2.96;84.22;99875.91;5044939;28;20403;-79
2021/12/06 02:05:59;;;;;;;4.90;4.40;;;;;;;2.91;84.35;99870.34;5043346;28;20399;-79
2021/12/06 02:08:25;;;;;;;5.00;4.50;;;;;;;2.89;84.79;99877.78;5040786;28;20419;-79
2021/12/06 02:10:53;;;;;;;4.45;4.10;;;;;;;2.84;84.37;99869.53;5039447;28;20406;-78
2021/12/06 02:13:18;;;;;;;4.97;4.47;;;;;;;2.72;83.85;99875.75;5037121;28;20445;-79
2021/12/06 02:15:49;;;;;;;5.20;4.80;;;;;;;2.67;83.83;99872.88;5036619;28;20835;-78
2021/12/06 02:18:38;;;;;;;5.50;5.00;;;;;;;2.71;83.90;99866.06;5034355;28;20853;-78
2021/12/06 02:21:31;;;;;;;6.90;5.00;;;;;;;2.74;83.74;99877.16;5040568;28;20406;-78
2021/12/06 02:24:00;;;;;;;5.68;5.18;;;;;;;2.74;83.96;99874.50;5033118;28;20403;-78
2021/12/06 02:26:25;;;;;;;7.03;5.93;;;;;;;2.73;84.24;99869.38;5040336;28;20401;-78
2021/12/06 02:28:52;;;;;;;6.43;5.83;;;;;;;2.69;84.17;99868.97;5035058;28;20407;-78
2021/12/06 02:31:20;;;;;;;6.43;5.88;;;;;;;2.68;83.99;99875.34;5045989;28;20915;-78
2021/12/06 02:33:48;;;;;;;6.20;5.70;;;;;;;2.66;84.38;99884.59;5034527;28;20900;-78
2021/12/06 02:36:16;;;;;;;6.78;5.85;;;;;;;2.64;84.61;99890.16;5046052;28;20401;-78
2021/12/06 02:38:41;;;;;;;5.70;5.10;;;;;;;2.65;84.60;99890.97;5034200;28;20412;-78
2021/12/06 02:41:08;;;;;;;5.50;5.00;;;;;;;2.66;84.31;99890.78;5033630;28;20492;-78
2021/12/06 02:43:34;;;;;;;6.82;5.65;;;;;;;2.66;84.17;99890.78;5032753;28;20410;-78
2021/12/06 02:46:00;;;;;;;6.30;5.60;;;;;;;2.68;84.29;99888.72;5033106;28;20894;-78
2021/12/06 02:48:25;;;;;;;5.75;5.25;;;;;;;2.67;84.50;99899.63;5050979;28;20536;-78
2021/12/06 02:50:53;;;;;;;6.30;5.70;;;;;;;2.69;84.51;99900.25;5031737;28;20416;-78
2021/12/06 02:53:21;;;;;;;5.78;5.22;;;;;;;2.69;84.21;99906.41;5034747;28;20766;-78
2021/12/06 02:55:52;;;;;;;6.43;5.50;;;;;;;2.71;84.30;99912.38;5032235;28;20434;-78
2021/12/06 03:01:26;;;;;;;6.57;5.20;;;;;;;2.84;84.13;99916.88;5040435;28;20391;-78
2021/12/06 03:03:52;;;;;;;8.30;6.05;;;;;;;2.88;84.33;99924.28;5031759;28;20398;-78
2021/12/06 03:06:20;;;;;;;7.30;6.30;;;;;;;2.90;84.28;99924.91;5039304;28;20468;-78
2021/12/06 03:09:05;;;;;;;7.10;6.40;;;;;;;2.88;84.98;99924.28;5039433;28;20518;-78
2021/12/06 03:11:39;;;;;;;7.32;6.53;;;;;;;2.98;84.82;99931.91;5043345;28;20398;-78
2021/12/06 03:14:07;;;;;;;7.53;6.82;;;;;;;3.03;84.65;99934.78;5043290;28;20397;-78
2021/12/06 03:16:32;;;;;;;8.70;7.35;;;;;;;3.07;84.98;99928.78;5042551;28;20494;-78
2021/12/06 03:18:58;;;;;;;8.67;7.87;;;;;;;3.12;84.63;99936.19;5033635;28;20531;-79
2021/12/06 03:21:24;;;;;;;8.10;7.30;;;;;;;3.14;84.34;99937.63;5036519;28;20415;-78
2021/12/06 03:23:51;;;;;;;8.50;7.07;;;;;;;3.17;84.75;99932.88;5032827;28;20872;-79
2021/12/06 03:26:16;;;;;;;8.50;7.40;;;;;;;3.20;84.32;99946.66;5032054;28;20399;-78
2021/12/06 03:28:44;;;;;;;8.13;7.33;;;;;;;3.10;84.41;99943.59;5040563;28;20903;-79
2021/12/06 03:31:11;;;;;;;8.25;7.50;;;;;;;3.06;84.72;99950.44;5035572;28;20393;-79
2021/12/06 03:33:40;;;;;;;8.35;7.38;;;;;;;3.09;85.06;99948.16;5036144;28;20406;-78
2021/12/06 03:36:08;;;;;;;9.43;8.40;;;;;;;3.08;84.85;99959.06;5038822;28;20831;-78
2021/12/06 03:38:35;;;;;;;7.97;7.20;;;;;;;2.99;85.06;99950.44;5048292;28;20452;-78
2021/12/06 03:41:01;;;;;;;9.75;8.18;;;;;;;2.99;85.43;99952.28;5036339;28;20411;-78
2021/12/06 03:43:27;;;;;;;9.52;8.50;;;;;;;2.98;85.26;99951.47;5038619;28;20410;-78
2021/12/06 03:45:52;;;;;;;8.30;7.30;;;;;;;3.07;84.80;99949.38;5039304;28;20416;-79
2021/12/06 03:48:17;;;;;;;15.10;9.50;;;;;;;3.13;84.29;99946.69;5030934;28;20460;-78
2021/12/06 03:50:43;;;;;;;11.10;8.47;;;;;;;3.10;84.51;99947.09;5033218;28;20898;-79
2021/12/06 03:53:09;;;;;;;9.40;8.38;;;;;;;3.07;84.22;99955.56;5045889;28;20473;-78
2021/12/06 03:55:34;;;;;;;21.20;14.30;;;;;;;3.02;84.73;99965.25;5037220;28;20405;-79
2021/12/06 03:57:59;;;;;;;34.17;19.02;;;;;;;3.03;84.57;99967.69;5040762;28;20412;-78
2021/12/06 04:00:25;;;;;;;39.87;21.67;;;;;;;3.01;84.79;99968.94;5037910;28;20403;-78
2021/12/06 04:02:51;;;;;;;19.00;12.60;;;;;;;2.93;84.83;99966.50;5027616;28;20923;-78
2021/12/06 04:05:16;;;;;;;11.67;9.93;;;;;;;2.88;85.24;99979.66;5052973;28;20415;-78
2021/12/06 04:07:42;;;;;;;10.63;9.57;;;;;;;2.91;85.56;99984.59;5031272;28;20419;-78
2021/12/06 04:10:08;;;;;;;11.10;9.47;;;;;;;2.98;85.34;99991.59;5034356;28;20500;-78
2021/12/06 04:12:34;;;;;;;10.38;9.35;;;;;;;3.05;84.86;99997.78;5043603;28;20883;-79
2021/12/06 04:14:59;;;;;;;10.40;9.35;;;;;;;3.10;85.01;99997.16;5042150;28;20412;-78
2021/12/06 04:17:25;;;;;;;10.23;8.87;;;;;;;3.13;84.70;99999.41;5030707;28;20430;-78
2021/12/06 04:19:50;;;;;;;10.53;9.17;;;;;;;3.13;84.66;100004.75;5035578;28;20404;-78
2021/12/06 04:22:17;;;;;;;10.57;9.35;;;;;;;3.19;84.57;100014.66;5040479;28;22088;-79
2021/12/06 04:24:43;;;;;;;9.68;8.77;;;;;;;3.24;84.73;100012.16;5035068;28;20747;-78
2021/12/06 04:27:14;;;;;;;9.10;7.82;;;;;;;3.25;84.58;100010.31;5033043;28;20421;-78
2021/12/06 04:29:44;;;;;;;9.57;8.57;;;;;;;3.22;84.81;100013.41;5032028;28;20406;-78
2021/12/06 04:32:10;;;;;;;9.55;8.02;;;;;;;3.32;84.55;100016.50;5031824;28;20895;-78
2021/12/06 04:34:36;;;;;;;11.47;9.87;;;;;;;3.37;84.22;100016.69;5039443;28;20417;-78
2021/12/06 04:37:02;;;;;;;12.05;10.18;;;;;;;3.40;83.62;100022.44;5048188;28;20407;-78
2021/12/06 04:39:28;;;;;;;10.07;9.00;;;;;;;3.39;82.81;100028.81;5038813;28;20446;-78
2021/12/06 04:41:53;;;;;;;9.90;8.77;;;;;;;3.40;82.86;100027.78;5045386;28;20435;-78
2021/12/06 04:44:19;;;;;;;10.18;8.50;;;;;;;3.41;83.10;100029.44;5042677;28;20429;-79
2021/12/06 04:46:45;;;;;;;12.05;9.38;;;;;;;3.39;82.83;100034.19;5029643;28;20411;-78
2021/12/06 04:49:11;;;;;;;10.77;8.80;;;;;;;3.37;82.99;100041.59;5043886;28;20409;-79
2021/12/06 04:51:38;;;;;;;10.23;8.90;;;;;;;3.31;83.98;100041.63;5044440;28;20432;-79
2021/12/06 04:54:04;;;;;;;11.73;10.07;;;;;;;3.26;83.56;100038.75;5049495;28;20400;-79
2021/12/06 04:56:36;;;;;;;10.02;9.05;;;;;;;3.25;84.01;100045.97;5038086;28;20954;-78
2021/12/06 04:59:18;;;;;;;8.77;7.67;;;;;;;3.32;83.67;100045.94;5043444;28;20401;-78
2021/12/06 05:01:46;;;;;;;9.65;8.75;;;;;;;3.34;83.49;100050.06;5040885;28;20402;-78
2021/12/06 05:04:20;;;;;;;10.02;9.00;;;;;;;3.37;83.33;100064.88;5042313;28;20497;-78
2021/12/06 05:06:49;;;;;;;14.88;12.95;;;;;;;3.17;83.83;100072.09;5042045;28;20403;-78
2021/12/06 05:09:19;;;;;;;11.43;7.45;;;;;;;3.22;84.33;100072.31;5045005;28;20954;-78
2021/12/06 05:11:46;;;;;;;7.78;7.05;;;;;;;3.32;83.28;100073.56;5042325;28;20403;-79
2021/12/06 05:14:12;;;;;;;7.40;6.70;;;;;;;3.34;83.73;100071.50;5039972;28;20406;-79
2021/12/06 05:16:37;;;;;;;8.40;7.45;;;;;;;3.32;83.31;100075.41;5042396;28;20441;-79
2021/12/06 05:19:04;;;;;;;11.17;7.40;;;;;;;3.12;84.39;100078.94;5036118;28;20407;-79
2021/12/06 05:21:30;;;;;;;9.98;8.38;;;;;;;3.03;84.88;100073.97;5048485;28;20655;-79
2021/12/06 05:23:55;;;;;;;14.65;10.82;;;;;;;3.06;85.08;100079.72;5032663;28;20937;-79
2021/12/06 05:26:21;;;;;;;10.93;9.40;;;;;;;3.01;85.16;100081.38;5052416;28;20492;-79
2021/12/06 05:28:48;;;;;;;12.67;8.90;;;;;;;3.02;85.12;100083.88;5043764;28;20532;-79
2021/12/06 05:31:20;;;;;;;12.77;9.40;;;;;;;2.95;85.32;100091.06;5038609;28;20407;-79
2021/12/06 05:33:58;;;;;;;17.02;10.88;;;;;;;2.93;85.73;100101.13;5044005;28;20474;-79
2021/12/06 05:36:24;;;;;;;18.63;11.23;;;;;;;2.96;85.52;100098.06;5037914;28;20469;-80
2021/12/06 05:38:51;;;;;;;27.42;14.75;;;;;;;3.04;85.79;100103.22;5034476;28;20560;-79
2021/12/06 05:41:16;;;;;;;40.28;17.10;;;;;;;3.06;85.20;100097.66;5038461;28;20411;-78
2021/12/06 05:43:42;;;;;;;36.73;17.80;;;;;;;3.04;85.49;100102.38;5039027;28;20415;-78
2021/12/06 05:46:07;;;;;;;48.50;21.13;;;;;;;3.14;85.62;100100.94;5040204;28;20537;-79
2021/12/06 05:48:33;;;;;;;52.80;20.77;;;;;;;3.22;85.55;100109.81;5044405;28;20546;-79
2021/12/06 05:50:58;;;;;;;64.50;22.10;;;;;;;3.28;85.51;100114.34;5037428;28;20501;-79
2021/12/06 05:53:24;;;;;;;53.97;18.60;;;;;;;3.32;84.98;100112.91;5042441;28;20407;-80
2021/12/06 05:55:50;;;;;;;80.37;19.73;;;;;;;3.35;84.86;100113.31;5036978;28;20411;-79
2021/12/06 05:58:20;;;;;;;78.70;18.38;;;;;;;3.15;85.63;100128.56;5032331;28;20399;-78
2021/12/06 06:00:48;;;;;;;80.35;17.65;;;;;;;3.07;86.42;100142.13;5046743;28;20403;-78
2021/12/06 06:03:14;;;;;;;83.82;18.67;;;;;;;3.03;87.24;100140.91;5039054;28;20399;-79
2021/12/06 06:05:39;;;;;;;53.63;18.05;;;;;;;3.14;87.14;100151.00;5034941;28;20928;-79
2021/12/06 06:08:05;;;;;;;59.78;18.70;;;;;;;3.29;86.86;100156.16;5035130;28;20836;-79
2021/12/06 06:10:31;;;;;;;102.35;16.60;;;;;;;3.36;86.00;100160.47;5036077;28;20407;-78
2021/12/06 06:12:57;;;;;;;73.65;18.05;;;;;;;3.35;86.09;100168.72;5041668;28;20468;-79
2021/12/06 06:15:23;;;;;;;90.07;18.35;;;;;;;3.18;86.62;100170.16;5042020;28;20405;-78
2021/12/06 06:17:48;;;;;;;77.17;16.60;;;;;;;3.27;86.50;100177.78;5041938;28;20450;-78
2021/12/06 06:20:21;;;;;;;83.77;17.60;;;;;;;3.37;86.24;100183.56;5035490;28;20766;-80
2021/12/06 06:22:47;;;;;;;68.38;17.23;;;;;;;3.42;86.08;100186.47;5033741;28;20429;-79
2021/12/06 06:25:15;;;;;;;127.17;18.40;;;;;;;3.42;85.92;100188.31;5036457;28;20433;-80
2021/12/06 06:27:41;;;;;;;126.22;20.27;;;;;;;3.25;86.74;100195.09;5033678;28;20916;-80
2021/12/06 06:30:07;;;;;;;126.63;19.75;;;;;;;3.08;87.45;100198.16;5040015;28;20413;-79
2021/12/06 06:32:32;;;;;;;122.10;18.70;;;;;;;3.00;87.83;100200.19;5047429;28;20393;-80
2021/12/06 06:34:57;;;;;;;111.18;18.92;;;;;;;3.09;88.42;100197.13;5039788;28;20403;-79
2021/12/06 06:37:23;;;;;;;82.57;18.83;;;;;;;3.23;87.92;100206.00;5048747;28;20484;-79
2021/12/06 06:39:48;;;;;;;127.97;20.67;;;;;;;3.26;87.63;100210.13;5038764;28;20419;-79
2021/12/06 06:42:15;;;;;;;81.27;18.90;;;;;;;3.35;87.46;100220.47;5040890;28;20391;-79
2021/12/06 06:44:41;;;;;;;66.97;17.80;;;;;;;3.29;87.56;100221.28;5037305;28;20442;-79
2021/12/06 06:47:06;;;;;;;107.27;18.17;;;;;;;3.12;87.50;100230.69;5037440;28;20433;-78
2021/12/06 06:49:31;;;;;;;83.10;17.80;;;;;;;3.04;87.95;100220.16;5046714;28;20405;-79
2021/12/06 06:51:58;;;;;;;78.45;16.63;;;;;;;2.96;87.69;100226.53;5042026;28;20382;-79
2021/12/06 06:54:24;;;;;;;85.38;17.75;;;;;;;2.93;88.58;100226.13;5035622;28;20486;-79
2021/12/06 06:56:49;;;;;;;75.70;19.77;;;;;;;2.98;88.42;100235.19;5038340;28;20479;-79
2021/12/06 06:59:14;;;;;;;72.85;17.83;;;;;;;2.98;88.35;100231.69;5037552;28;20950;-78
2021/12/06 07:01:40;;;;;;;60.63;16.73;;;;;;;2.99;88.21;100228.00;5035303;28;20397;-79
2021/12/06 07:04:06;;;;;;;54.73;18.67;;;;;;;3.03;87.94;100230.03;5058374;28;20409;-78
2021/12/06 07:06:31;;;;;;;121.57;19.23;;;;;;;3.02;87.84;100232.94;5042629;28;20411;-80
2021/12/06 07:08:57;;;;;;;61.33;18.13;;;;;;;3.11;88.01;100239.75;5043123;28;20417;-78
2021/12/06 07:11:23;;;;;;;72.25;17.85;;;;;;;3.10;87.65;100238.09;5042858;28;20406;-78
2021/12/06 07:13:48;;;;;;;72.67;18.17;;;;;;;3.17;87.60;100246.97;5042986;28;20427;-78
2021/12/06 07:16:16;;;;;;;90.03;22.57;;;;;;;3.14;87.31;100245.53;5039073;28;20525;-78
2021/12/06 07:18:43;;;;;;;70.93;19.17;;;;;;;3.15;87.17;100251.72;5054030;28;20496;-79
2021/12/06 07:21:09;;;;;;;52.17;17.10;;;;;;;3.06;87.42;100256.41;5044270;28;20405;-79
2021/12/06 07:23:38;;;;;;;56.25;17.50;;;;;;;2.99;87.73;100263.63;5033946;28;20768;-78
2021/12/06 07:26:09;;;;;;;47.80;17.55;;;;;;;3.11;87.95;100270.03;5031986;28;20396;-78
2021/12/06 07:28:34;;;;;;;51.80;18.33;;;;;;;3.27;86.54;100268.84;5039022;28;20413;-78
2021/12/06 07:31:01;;;;;;;38.72;16.88;;;;;;;3.39;86.25;100269.09;5023504;28;20441;-78
2021/12/06 07:33:27;;;;;;;52.35;17.40;;;;;;;3.39;86.21;100274.44;5043658;28;20432;-79
2021/12/06 07:35:52;;;;;;;50.80;17.40;;;;;;;3.42;85.91;100279.41;5035068;28;20399;-79
2021/12/06 07:38:18;;;;;;;52.58;17.92;;;;;;;3.43;85.17;100286.38;5031685;28;20411;-79
2021/12/06 07:40:43;;;;;;;50.70;17.43;;;;;;;3.42;85.19;100287.44;5030722;28;20748;-79
2021/12/06 07:43:09;;;;;;;40.87;17.40;;;;;;;3.44;84.84;100288.88;5034957;28;20410;-79
2021/12/06 07:45:34;;;;;;;33.50;16.67;;;;;;;3.34;85.83;100295.63;5036788;28;20399;-79
2021/12/06 07:47:59;;;;;;;31.45;15.85;;;;;;;3.41;86.35;100301.84;5032396;28;20454;-79
2021/12/06 07:50:25;;;;;;;35.63;16.30;;;;;;;3.37;85.45;100300.59;5032633;28;20444;-78
2021/12/06 07:52:52;;;;;;;34.03;16.73;;;;;;;3.18;86.45;100310.22;5031043;28;20399;-78
2021/12/06 07:55:20;;;;;;;38.17;18.88;;;;;;;3.20;87.02;100310.00;5031612;28;20819;-79
2021/12/06 07:57:46;;;;;;;38.80;20.55;;;;;;;3.34;86.67;100306.34;5032582;28;20421;-78
2021/12/06 08:00:18;;;;;;;36.47;18.83;;;;;;;3.42;86.13;100312.38;5033091;28;20411;-79
2021/12/06 08:02:43;;;;;;;35.63;17.33;;;;;;;3.51;85.51;100313.00;5030302;28;20438;-79
2021/12/06 08:07:55;;;;;;;37.40;16.95;;;;;;;3.59;84.85;100308.25;5031408;28;20515;-79
2021/12/06 08:10:20;;;;;;;35.33;18.35;;;;;;;3.58;84.96;100300.44;5031488;28;20506;-79
2021/12/06 08:12:46;;;;;;;37.87;18.00;;;;;;;3.61;85.12;100311.59;5031296;28;20744;-79
2021/12/06 08:15:11;;;;;;;39.00;18.13;;;;;;;3.57;85.24;100307.66;5034870;28;20397;-79
2021/12/06 08:17:37;;;;;;;38.13;18.00;;;;;;;3.63;85.21;100304.16;5038438;28;20897;-79
2021/12/06 08:20:05;;;;;;;30.93;15.90;;;;;;;3.71;84.75;100305.00;5038009;28;20403;-79
2021/12/06 08:22:31;;;;;;;36.50;18.33;;;;;;;3.76;84.57;100307.88;5045977;28;20405;-79
2021/12/06 08:24:57;;;;;;;33.72;16.88;;;;;;;3.84;84.17;100313.06;5053773;28;20399;-79
2021/12/06 08:27:22;;;;;;;35.30;16.93;;;;;;;3.88;83.85;100317.81;5040961;28;20460;-79
2021/12/06 08:29:47;;;;;;;31.70;16.83;;;;;;;3.89;83.76;100316.75;5048456;28;20951;-78
2021/12/06 08:32:13;;;;;;;33.50;16.93;;;;;;;3.92;83.87;100321.72;5039961;28;20488;-78
2021/12/06 08:34:41;;;;;;;36.37;17.97;;;;;;;3.92;83.58;100324.38;5039576;28;20411;-79
2021/12/06 08:37:08;;;;;;;34.17;17.15;;;;;;;3.92;83.25;100326.28;5039398;28;20426;-79
2021/12/06 08:39:34;;;;;;;40.25;18.80;;;;;;;3.66;84.04;100337.75;5036183;28;20944;-79
2021/12/06 08:41:59;;;;;;;37.00;18.27;;;;;;;3.47;85.59;100333.19;5048083;28;20413;-78
2021/12/06 08:44:24;;;;;;;38.90;19.67;;;;;;;3.46;85.69;100342.22;5044847;28;20407;-79
2021/12/06 08:46:50;;;;;;;38.40;18.43;;;;;;;3.46;85.83;100334.19;5034439;28;20399;-79
2021/12/06 08:49:15;;;;;;;31.95;16.92;;;;;;;3.46;86.13;100339.56;5034859;28;20429;-79
2021/12/06 08:51:45;;;;;;;22.13;13.47;;;;;;;3.60;86.02;100336.72;5036419;28;20792;-79
2021/12/06 08:54:12;;;;;;;20.48;12.93;;;;;;;3.82;84.67;100340.03;5043989;28;20407;-79
2021/12/06 08:56:38;;;;;;;22.75;13.43;;;;;;;3.93;83.44;100331.41;5036979;28;20415;-79
2021/12/06 08:59:06;;;;;;;21.85;14.10;;;;;;;3.98;83.57;100337.00;5033965;28;20898;-78
2021/12/06 09:01:32;;;;;;;28.10;15.15;;;;;;;3.89;84.20;100335.53;5039509;28;20532;-79
2021/12/06 09:03:58;;;;;;;26.95;15.25;;;;;;;3.97;83.90;100337.19;5051624;28;20414;-79
2021/12/06 09:06:23;;;;;;;23.30;14.97;;;;;;;4.04;84.04;100329.97;5036378;28;20395;-78
2021/12/06 09:08:48;;;;;;;30.17;17.50;;;;;;;4.17;82.94;100336.19;5055030;28;20443;-78
2021/12/06 09:11:14;;;;;;;26.77;16.97;;;;;;;4.28;82.72;100333.91;5034811;28;20410;-78
2021/12/06 09:13:41;;;;;;;31.30;17.33;;;;;;;4.22;82.50;100340.06;5052710;28;20932;-79
2021/12/06 09:16:08;;;;;;;27.10;18.07;;;;;;;4.01;83.61;100344.63;5041909;28;20402;-79
2021/12/06 09:18:38;;;;;;;29.40;17.53;;;;;;;4.23;83.45;100342.56;5035167;28;20403;-79
2021/12/06 09:21:05;;;;;;;27.63;17.45;;;;;;;4.27;82.98;100343.81;5035414;28;20957;-79
2021/12/06 09:23:31;;;;;;;29.08;18.27;;;;;;;4.44;82.18;100346.91;5049772;28;20794;-79
2021/12/06 09:25:57;;;;;;;22.75;16.20;;;;;;;4.25;82.57;100345.06;5050400;28;20411;-79
2021/12/06 09:28:22;;;;;;;20.47;15.77;;;;;;;4.33;82.77;100339.47;5034499;28;20917;-79
2021/12/06 09:30:48;;;;;;;27.90;15.97;;;;;;;4.58;82.04;100343.16;5033816;28;20391;-78
2021/12/06 09:33:16;;;;;;;23.27;15.55;;;;;;;4.57;81.81;100333.47;5033854;28;20948;-79
2021/12/06 09:35:44;;;;;;;24.40;16.35;;;;;;;4.70;81.75;100338.81;5043206;28;20872;-78
2021/12/06 09:38:11;;;;;;;20.50;15.00;;;;;;;4.76;82.11;100339.81;5034545;28;20403;-79
2021/12/06 09:40:41;;;;;;;20.15;14.80;;;;;;;4.79;82.08;100337.53;5034365;28;20418;-79
2021/12/06 09:43:09;;;;;;;23.10;14.55;;;;;;;4.93;81.76;100341.03;5041554;28;20395;-78
2021/12/06 09:45:34;;;;;;;18.33;14.02;;;;;;;5.21;81.08;100333.47;5039053;28;20425;-79
2021/12/06 09:48:02;;;;;;;21.30;15.02;;;;;;;5.49;80.65;100341.22;5046226;28;20822;-79
2021/12/06 09:50:34;;;;;;;20.33;14.57;;;;;;;5.66;79.74;100345.06;5037343;28;20412;-79
2021/12/06 09:53:04;;;;;;;18.38;13.40;;;;;;;5.58;79.63;100340.75;5034085;28;20410;-78
2021/12/06 09:55:32;;;;;;;19.23;13.97;;;;;;;5.71;78.41;100350.59;5043685;28;20965;-79
2021/12/06 09:57:58;;;;;;;18.63;14.02;;;;;;;5.35;79.38;100351.19;5040824;28;20522;-79
2021/12/06 10:00:26;;;;;;;18.15;14.07;;;;;;;5.24;79.50;100355.38;5034063;28;20446;-78
2021/12/06 10:02:52;;;;;;;18.67;13.40;;;;;;;4.96;80.69;100359.41;5035389;28;20956;-78
2021/12/06 10:05:18;;;;;;;19.27;14.05;;;;;;;4.74;81.71;100363.38;5034302;28;20434;-78
2021/12/06 10:07:44;;;;;;;19.65;14.45;;;;;;;4.70;81.31;100357.59;5038997;28;20764;-78
2021/12/06 10:10:12;;;;;;;18.67;14.03;;;;;;;4.58;82.10;100360.09;5049886;28;20399;-78
2021/12/06 10:12:38;;;;;;;18.43;14.10;;;;;;;4.52;82.52;100366.28;5037049;28;20551;-78
2021/12/06 10:15:05;;;;;;;17.67;14.25;;;;;;;4.62;82.02;100363.19;5051582;28;20461;-78
2021/12/06 10:17:32;;;;;;;15.48;13.27;;;;;;;4.24;82.68;100356.81;5037487;28;20490;-78
2021/12/06 10:19:58;;;;;;;19.43;13.40;;;;;;;4.19;83.79;100352.88;5040440;28;20414;-78
2021/12/06 10:22:24;;;;;;;31.67;22.05;;;;;;;4.19;84.25;100346.69;5037521;28;20770;-78
2021/12/06 10:24:57;;;;;;;18.08;14.07;;;;;;;4.41;82.87;100339.28;5042138;28;20761;-78
2021/12/06 10:27:23;;;;;;;18.10;14.15;;;;;;;4.29;82.60;100344.41;5035020;28;20407;-78
2021/12/06 10:30:00;;;;;;;18.93;15.10;;;;;;;4.27;83.84;100346.50;5054924;28;20749;-78
2021/12/06 10:32:28;;;;;;;15.38;12.75;;;;;;;4.54;83.27;100339.25;5034649;28;20399;-78
2021/12/06 10:34:58;;;;;;;15.30;12.45;;;;;;;4.82;82.55;100337.13;5048632;28;20411;-78
2021/12/06 10:37:35;;;;;;;14.82;12.60;;;;;;;4.59;82.83;100340.28;5043685;28;20409;-78
2021/12/06 10:40:03;;;;;;;14.88;12.27;;;;;;;4.83;82.76;100335.25;5035306;28;20424;-78
2021/12/06 10:42:36;;;;;;;19.67;12.95;;;;;;;5.19;81.29;100324.81;5043014;28;20406;-78
2021/12/06 10:45:23;;;;;;;14.32;12.18;;;;;;;5.46;79.30;100329.03;5035310;28;20510;-78
2021/12/06 10:48:11;;;;;;;16.00;13.50;;;;;;;5.30;80.13;100320.66;5035852;28;20842;-79
2021/12/06 10:51:01;;;;;;;17.85;12.50;;;;;;;5.04;80.71;100325.06;5032749;28;20411;-79
2021/12/06 10:53:32;;;;;;;15.82;12.40;;;;;;;4.96;80.70;100321.81;5041301;28;20832;-79
2021/12/06 10:55:58;;;;;;;16.98;14.20;;;;;;;4.94;80.59;100315.84;5044773;28;20881;-78
2021/12/06 10:58:27;;;;;;;19.38;14.23;;;;;;;4.68;81.75;100317.53;5046847;28;20417;-78
2021/12/06 11:01:04;;;;;;;17.88;13.70;;;;;;;4.80;81.61;100316.91;5040556;28;20403;-78
2021/12/06 11:03:40;;;;;;;19.00;14.20;;;;;;;4.86;81.08;100316.88;5040118;28;20449;-79
2021/12/06 11:06:19;;;;;;;18.73;13.63;;;;;;;4.57;81.82;100312.00;5035895;28;20960;-79
2021/12/06 11:08:47;;;;;;;18.80;13.65;;;;;;;4.36;82.90;100320.28;5033908;28;20423;-79
2021/12/06 11:11:16;;;;;;;20.65;15.93;;;;;;;4.45;83.03;100311.78;5040655;28;20411;-78
2021/12/06 11:13:45;;;;;;;19.88;15.25;;;;;;;4.85;82.25;100323.28;5034980;28;20434;-79
2021/12/06 11:16:15;;;;;;;17.77;14.43;;;;;;;4.68;82.39;100312.16;5032719;28;20862;-79
2021/12/06 11:18:45;;;;;;;18.30;14.25;;;;;;;4.80;82.67;100320.41;5040277;28;20900;-79
2021/12/06 11:21:34;;;;;;;16.83;13.90;;;;;;;4.72;82.14;100316.09;5031750;28;20411;-79
2021/12/06 11:24:25;;;;;;;19.15;13.88;;;;;;;4.90;82.37;100310.06;5048408;28;20396;-79
2021/12/06 11:27:11;;;;;;;16.77;12.70;;;;;;;5.15;80.02;100308.31;5034906;28;20407;-78
2021/12/06 11:29:43;;;;;;;14.38;11.63;;;;;;;4.85;81.55;100298.28;5036346;28;20427;-79
2021/12/06 11:32:22;;;;;;;14.32;11.63;;;;;;;4.59;82.18;100301.88;5034814;28;20403;-79
2021/12/06 11:34:53;;;;;;;15.98;12.75;;;;;;;4.40;83.09;100297.38;5036844;28;20458;-79
2021/12/06 11:37:24;;;;;;;16.80;12.40;;;;;;;4.41;83.03;100302.50;5038878;28;20457;-78
2021/12/06 11:40:11;;;;;;;15.23;11.85;;;;;;;4.52;82.80;100303.72;5031747;28;20476;-78
2021/12/06 11:43:00;;;;;;;16.48;11.75;;;;;;;4.50;82.57;100295.91;5039142;28;20395;-79
2021/12/06 11:45:46;;;;;;;16.58;13.02;;;;;;;4.46;83.13;100299.22;5031448;28;20415;-78
2021/12/06 11:48:42;;;;;;;16.70;12.15;;;;;;;4.55;82.94;100296.09;5047322;28;21042;-79